createdAt,value
2022-10-15T00:01:42.604Z,14.09
2022-10-15T00:04:10.684Z,14.10
2022-10-15T00:06:38.691Z,14.09
2022-10-15T00:09:06.760Z,14.08
2022-10-15T00:11:35.662Z,14.05
2022-10-15T00:14:05.112Z,14.02
2022-10-15T00:16:34.613Z,14.04
2022-10-15T00:19:02.640Z,14.00
2022-10-15T00:21:30.923Z,14.00
2022-10-15T00:23:59.098Z,13.98
2022-10-15T00:26:28.280Z,13.99
2022-10-15T00:28:58.351Z,14.01
2022-10-15T00:31:29.077Z,14.02
2022-10-15T00:33:59.614Z,13.99
2022-10-15T00:36:29.671Z,13.97
2022-10-15T00:39:22.921Z,14.01
2022-10-15T00:41:50.907Z,13.99
2022-10-15T00:44:56.858Z,13.98
2022-10-15T00:47:29.625Z,13.96
2022-10-15T00:50:06.352Z,13.97
2022-10-15T00:52:40.834Z,13.88
2022-10-15T00:55:13.313Z,13.88
2022-10-15T00:57:42.047Z,13.90
2022-10-15T01:00:12.532Z,13.87
2022-10-15T01:02:42.349Z,13.83
2022-10-15T01:05:10.819Z,13.86
2022-10-15T01:07:41.282Z,13.86
2022-10-15T01:10:10.665Z,13.86
2022-10-15T01:12:58.862Z,13.82
2022-10-15T01:15:28.291Z,13.77
2022-10-15T01:18:00.890Z,13.80
2022-10-15T01:20:53.593Z,13.72
2022-10-15T01:23:58.356Z,13.73
2022-10-15T01:27:00.125Z,13.79
2022-10-15T01:29:41.175Z,13.70
2022-10-15T01:32:14.957Z,13.73
2022-10-15T01:34:49.281Z,13.74
2022-10-15T01:37:21.561Z,13.74
2022-10-15T01:39:53.954Z,13.69
2022-10-15T01:42:30.177Z,13.70
2022-10-15T01:45:00.476Z,13.69
2022-10-15T01:47:41.705Z,13.67
2022-10-15T01:50:10.916Z,13.69
2022-10-15T01:52:39.783Z,13.70
2022-10-15T01:55:11.562Z,13.66
2022-10-15T01:58:04.922Z,13.61
2022-10-15T02:00:33.007Z,13.67
2022-10-15T02:03:05.502Z,13.68
2022-10-15T02:05:36.624Z,13.67
2022-10-15T02:08:11.239Z,13.61
2022-10-15T02:13:34.585Z,13.50
2022-10-15T02:16:05.159Z,13.44
2022-10-15T02:18:40.387Z,13.55
2022-10-15T02:21:12.026Z,13.64
2022-10-15T02:23:43.341Z,13.69
2022-10-15T02:26:12.163Z,13.65
2022-10-15T02:28:43.991Z,13.71
2022-10-15T02:31:13.952Z,13.68
2022-10-15T02:33:45.660Z,13.67
2022-10-15T02:36:16.225Z,13.67
2022-10-15T02:38:45.951Z,13.68
2022-10-15T02:41:14.628Z,13.65
2022-10-15T02:43:42.768Z,13.64
2022-10-15T02:46:14.067Z,13.70
2022-10-15T02:48:45.108Z,13.70
2022-10-15T02:51:16.596Z,13.68
2022-10-15T02:53:44.620Z,13.64
2022-10-15T02:56:12.734Z,13.67
2022-10-15T02:58:40.864Z,13.65
2022-10-15T03:01:09.410Z,13.57
2022-10-15T03:03:37.698Z,13.59
2022-10-15T03:06:08.004Z,13.58
2022-10-15T03:08:36.106Z,13.57
2022-10-15T03:11:05.572Z,13.59
2022-10-15T03:13:36.825Z,13.59
2022-10-15T03:16:06.663Z,13.59
2022-10-15T03:18:38.161Z,13.58
2022-10-15T03:21:20.696Z,13.58
2022-10-15T03:23:49.000Z,13.60
2022-10-15T03:26:21.273Z,13.50
2022-10-15T03:28:50.443Z,13.47
2022-10-15T03:31:31.937Z,13.52
2022-10-15T03:34:03.201Z,13.49
2022-10-15T03:36:33.383Z,13.54
2022-10-15T03:39:02.219Z,13.51
2022-10-15T03:41:54.985Z,13.47
2022-10-15T03:44:30.199Z,13.49
2022-10-15T03:47:08.135Z,13.47
2022-10-15T03:49:47.512Z,13.46
2022-10-15T03:52:17.728Z,13.51
2022-10-15T03:54:47.551Z,13.55
2022-10-15T03:57:18.479Z,13.56
2022-10-15T03:59:51.485Z,13.53
2022-10-15T04:02:22.121Z,13.53
2022-10-15T04:04:52.643Z,13.54
2022-10-15T04:07:22.268Z,13.52
2022-10-15T04:09:50.586Z,13.52
2022-10-15T04:12:25.180Z,13.53
2022-10-15T04:14:53.621Z,13.55
2022-10-15T04:17:21.722Z,13.56
2022-10-15T04:19:50.767Z,13.58
2022-10-15T04:22:18.881Z,13.55
2022-10-15T04:24:54.989Z,13.55
2022-10-15T04:27:29.980Z,13.56
2022-10-15T04:30:08.619Z,13.54
2022-10-15T04:32:39.549Z,13.59
2022-10-15T04:35:08.324Z,13.60
2022-10-15T04:38:02.268Z,13.61
2022-10-15T04:40:51.587Z,13.62
2022-10-15T04:43:19.595Z,13.60
2022-10-15T04:45:49.216Z,13.63
2022-10-15T04:48:20.425Z,13.65
2022-10-15T04:50:48.456Z,13.65
2022-10-15T04:53:20.111Z,13.64
2022-10-15T04:55:53.645Z,13.64
2022-10-15T04:58:21.952Z,13.64
2022-10-15T05:00:50.108Z,13.68
2022-10-15T05:06:07.100Z,13.74
2022-10-15T05:08:36.172Z,13.70
2022-10-15T05:11:20.634Z,13.67
2022-10-15T05:13:49.276Z,13.73
2022-10-15T05:16:18.753Z,13.73
2022-10-15T05:18:49.207Z,13.79
2022-10-15T05:21:21.234Z,13.75
2022-10-15T05:23:52.787Z,13.77
2022-10-15T05:26:40.764Z,13.70
2022-10-15T05:29:10.300Z,13.68
2022-10-15T05:31:39.420Z,13.74
2022-10-15T05:34:18.537Z,13.76
2022-10-15T05:36:58.214Z,13.76
2022-10-15T05:39:26.191Z,13.78
2022-10-15T05:41:56.997Z,13.79
2022-10-15T05:44:35.853Z,13.78
2022-10-15T05:47:03.872Z,13.80
2022-10-15T05:49:32.473Z,13.75
2022-10-15T05:52:10.598Z,13.73
2022-10-15T05:55:04.203Z,13.74
2022-10-15T05:57:33.538Z,13.72
2022-10-15T06:00:05.962Z,13.71
2022-10-15T06:02:40.356Z,13.71
2022-10-15T06:05:08.898Z,13.73
2022-10-15T06:07:36.876Z,13.74
2022-10-15T06:10:06.950Z,13.78
2022-10-15T06:12:38.360Z,13.75
2022-10-15T06:15:07.329Z,13.76
2022-10-15T06:17:35.429Z,13.81
2022-10-15T06:20:03.450Z,13.81
2022-10-15T06:22:32.063Z,13.85
2022-10-15T06:25:00.129Z,13.88
2022-10-15T06:27:29.365Z,13.88
2022-10-15T06:29:58.715Z,13.95
2022-10-15T06:32:26.729Z,13.94
2022-10-15T06:34:54.888Z,13.99
2022-10-15T06:37:23.227Z,14.01
2022-10-15T06:39:52.319Z,14.06
2022-10-15T06:42:20.330Z,14.07
2022-10-15T06:44:49.203Z,14.13
2022-10-15T06:47:19.631Z,14.09
2022-10-15T06:49:48.536Z,14.13
2022-10-15T06:52:16.588Z,14.13
2022-10-15T06:54:44.657Z,14.16
2022-10-15T06:57:12.762Z,14.15
2022-10-15T06:59:41.574Z,14.20
2022-10-15T07:02:10.281Z,14.21
2022-10-15T07:04:39.717Z,14.21
2022-10-15T07:07:07.691Z,14.24
2022-10-15T07:09:36.747Z,14.27
2022-10-15T07:12:05.357Z,14.23
2022-10-15T07:14:34.346Z,14.30
2022-10-15T07:17:04.874Z,14.34
2022-10-15T07:19:32.958Z,14.33
2022-10-15T07:22:02.390Z,14.34
2022-10-15T07:24:30.529Z,14.36
2022-10-15T07:26:58.545Z,14.39
2022-10-15T07:29:26.535Z,14.41
2022-10-15T07:31:54.814Z,14.39
2022-10-15T07:34:23.004Z,14.46
2022-10-15T07:36:51.028Z,14.46
2022-10-15T07:39:20.477Z,14.47
2022-10-15T07:41:48.463Z,14.48
2022-10-15T07:44:16.662Z,14.49
2022-10-15T07:46:44.711Z,14.49
2022-10-15T07:49:12.819Z,14.57
2022-10-15T07:51:40.893Z,14.58
2022-10-15T07:54:08.892Z,14.66
2022-10-15T07:56:38.240Z,14.69
2022-10-15T07:59:06.201Z,14.73
2022-10-15T08:01:34.221Z,14.78
2022-10-15T08:04:02.282Z,14.77
2022-10-15T08:06:30.281Z,14.76
2022-10-15T08:08:58.374Z,14.79
2022-10-15T08:11:29.976Z,14.86
2022-10-15T08:13:59.684Z,14.86
2022-10-15T08:16:27.770Z,14.87
2022-10-15T08:19:01.990Z,14.87
2022-10-15T08:21:30.147Z,14.94
2022-10-15T08:23:58.194Z,14.96
2022-10-15T08:26:34.593Z,14.97
2022-10-15T08:29:04.165Z,14.97
2022-10-15T08:31:32.731Z,15.01
2022-10-15T08:34:01.262Z,15.05
2022-10-15T08:36:29.866Z,15.06
2022-10-15T08:38:57.884Z,15.08
2022-10-15T08:41:31.142Z,15.11
2022-10-15T08:43:59.822Z,15.09
2022-10-15T08:46:36.448Z,15.23
2022-10-15T08:49:04.834Z,15.18
2022-10-15T08:51:38.726Z,15.25
2022-10-15T08:54:07.659Z,15.27
2022-10-15T08:56:39.266Z,15.31
2022-10-15T08:59:16.401Z,15.31
2022-10-15T09:01:49.373Z,15.38
2022-10-15T09:07:05.563Z,15.43
2022-10-15T09:09:38.731Z,15.50
2022-10-15T09:12:15.413Z,15.41
2022-10-15T09:14:45.010Z,15.49
2022-10-15T09:17:22.849Z,15.43
2022-10-15T09:19:56.171Z,15.46
2022-10-15T09:22:26.114Z,15.48
2022-10-15T09:24:54.620Z,15.52
2022-10-15T09:27:30.284Z,15.54
2022-10-15T09:30:05.348Z,15.59
2022-10-15T09:32:37.821Z,15.66
2022-10-15T09:35:15.186Z,15.76
2022-10-15T09:37:49.991Z,15.80
2022-10-15T09:40:28.450Z,15.77
2022-10-15T09:42:57.659Z,15.79
2022-10-15T09:45:25.797Z,15.82
2022-10-15T09:48:00.243Z,15.93
2022-10-15T09:50:32.381Z,15.93
2022-10-15T09:53:06.845Z,15.98
2022-10-15T09:55:42.159Z,16.03
2022-10-15T09:58:14.381Z,16.00
2022-10-15T10:00:58.874Z,16.06
2022-10-15T10:03:34.165Z,16.10
2022-10-15T10:06:04.590Z,16.15
2022-10-15T10:08:40.131Z,16.22
2022-10-15T10:11:09.931Z,16.33
2022-10-15T10:13:41.686Z,16.34
2022-10-15T10:16:11.178Z,16.41
2022-10-15T10:18:41.871Z,16.45
2022-10-15T10:21:24.187Z,16.59
2022-10-15T10:23:52.232Z,16.67
2022-10-15T10:26:21.853Z,16.66
2022-10-15T10:28:57.046Z,16.65
2022-10-15T10:31:40.032Z,16.71
2022-10-15T10:34:15.984Z,16.83
2022-10-15T10:36:50.067Z,16.82
2022-10-15T10:39:26.558Z,16.88
2022-10-15T10:41:56.150Z,16.92
2022-10-15T10:44:29.136Z,16.95
2022-10-15T10:47:11.721Z,17.02
2022-10-15T10:49:42.884Z,16.99
2022-10-15T10:52:28.081Z,16.94
2022-10-15T10:55:01.335Z,16.92
2022-10-15T10:57:40.737Z,16.86
2022-10-15T11:00:12.525Z,16.94
2022-10-15T11:02:43.895Z,16.93
2022-10-15T11:05:14.109Z,16.99
2022-10-15T11:07:48.599Z,17.01
2022-10-15T11:10:20.990Z,17.10
2022-10-15T11:13:06.508Z,17.06
2022-10-15T11:15:44.599Z,17.11
2022-10-15T11:18:26.278Z,17.12
2022-10-15T11:21:03.143Z,17.13
2022-10-15T11:23:48.438Z,17.13
2022-10-15T11:26:37.105Z,17.20
2022-10-15T11:29:12.280Z,17.30
2022-10-15T11:32:01.674Z,17.36
2022-10-15T11:34:40.695Z,17.48
2022-10-15T11:37:20.264Z,17.47
2022-10-15T11:39:59.048Z,17.53
2022-10-15T11:42:33.960Z,17.63
2022-10-15T11:45:11.883Z,17.59
2022-10-15T11:47:49.086Z,17.65
2022-10-15T11:50:31.914Z,17.72
2022-10-15T11:53:17.148Z,17.69
2022-10-15T11:55:52.029Z,17.73
2022-10-15T11:58:25.320Z,17.78
2022-10-15T12:00:57.068Z,17.89
2022-10-15T12:03:27.199Z,17.98
2022-10-15T12:06:00.122Z,17.99
2022-10-15T12:08:36.402Z,18.10
2022-10-15T12:11:13.352Z,18.21
2022-10-15T12:13:46.241Z,18.19
2022-10-15T12:16:20.638Z,18.14
2022-10-15T12:18:52.455Z,18.20
2022-10-15T12:21:35.770Z,18.27
2022-10-15T12:24:10.585Z,18.22
2022-10-15T12:26:38.816Z,18.22
2022-10-15T12:29:17.829Z,18.33
2022-10-15T12:31:48.688Z,18.38
2022-10-15T12:34:32.244Z,18.46
2022-10-15T12:37:05.332Z,18.44
2022-10-15T12:42:28.257Z,18.53
2022-10-15T12:44:57.179Z,18.50
2022-10-15T12:47:47.427Z,18.60
2022-10-15T12:50:19.973Z,18.61
2022-10-15T12:52:57.332Z,18.60
2022-10-15T12:55:36.918Z,18.64
2022-10-15T12:58:07.505Z,18.51
2022-10-15T13:00:43.560Z,18.60
2022-10-15T13:03:34.465Z,18.50
2022-10-15T13:06:16.537Z,18.51
2022-10-15T13:08:45.960Z,18.57
2022-10-15T13:11:41.999Z,18.55
2022-10-15T13:14:19.132Z,18.67
2022-10-15T13:16:48.696Z,18.74
2022-10-15T13:19:20.476Z,18.80
2022-10-15T13:21:50.988Z,18.84
2022-10-15T13:24:20.340Z,18.87
2022-10-15T13:26:50.179Z,18.87
2022-10-15T13:29:19.390Z,18.91
2022-10-15T13:31:48.223Z,18.84
2022-10-15T13:34:26.986Z,18.89
2022-10-15T13:36:56.007Z,18.87
2022-10-15T13:39:31.984Z,18.98
2022-10-15T13:42:16.133Z,18.98
2022-10-15T13:44:45.621Z,18.94
2022-10-15T13:47:31.797Z,19.05
2022-10-15T13:50:12.993Z,19.00
2022-10-15T13:52:42.362Z,19.06
2022-10-15T13:55:19.492Z,19.00
2022-10-15T13:57:50.446Z,18.98
2022-10-15T14:00:24.598Z,19.10
2022-10-15T14:03:09.006Z,18.84
2022-10-15T14:05:37.122Z,18.77
2022-10-15T14:08:05.528Z,18.90
2022-10-15T14:10:33.624Z,18.86
2022-10-15T14:13:02.996Z,19.01
2022-10-15T14:15:45.405Z,19.01
2022-10-15T14:18:15.215Z,19.00
2022-10-15T14:20:47.111Z,18.99
2022-10-15T14:23:22.166Z,18.80
2022-10-15T14:25:54.836Z,18.77
2022-10-15T14:28:25.047Z,18.85
2022-10-15T14:30:53.642Z,19.08
2022-10-15T14:33:33.269Z,19.13
2022-10-15T14:36:10.797Z,19.04
2022-10-15T14:38:39.083Z,19.07
2022-10-15T14:41:22.637Z,19.18
2022-10-15T14:44:17.914Z,19.27
2022-10-15T14:46:48.925Z,19.23
2022-10-15T14:49:28.006Z,19.25
2022-10-15T14:51:58.188Z,19.27
2022-10-15T14:54:31.162Z,19.35
2022-10-15T14:56:59.276Z,19.38
2022-10-15T14:59:33.132Z,19.41
2022-10-15T15:02:03.342Z,19.60
2022-10-15T15:04:42.962Z,19.39
2022-10-15T15:07:15.832Z,19.28
2022-10-15T15:09:43.933Z,19.47
2022-10-15T15:12:16.969Z,19.40
2022-10-15T15:14:46.548Z,19.37
2022-10-15T15:17:17.244Z,19.35
2022-10-15T15:19:45.337Z,19.36
2022-10-15T15:22:15.641Z,19.32
2022-10-15T15:24:43.805Z,19.08
2022-10-15T15:27:22.755Z,18.92
2022-10-15T15:29:52.835Z,19.08
2022-10-15T15:32:21.785Z,19.24
2022-10-15T15:34:50.633Z,19.28
2022-10-15T15:37:20.495Z,19.30
2022-10-15T15:39:48.547Z,19.15
2022-10-15T15:42:18.039Z,19.33
2022-10-15T15:44:46.360Z,19.33
2022-10-15T15:47:15.921Z,19.28
2022-10-15T15:49:44.214Z,19.18
2022-10-15T15:52:14.051Z,18.84
2022-10-15T15:54:42.116Z,18.79
2022-10-15T15:57:10.381Z,18.65
2022-10-15T16:00:03.225Z,18.72
2022-10-15T16:02:34.521Z,18.69
2022-10-15T16:05:02.830Z,18.75
2022-10-15T16:07:31.278Z,18.77
2022-10-15T16:09:59.441Z,18.81
2022-10-15T16:12:27.485Z,18.69
2022-10-15T16:14:55.788Z,18.58
2022-10-15T16:17:24.783Z,18.62
2022-10-15T16:19:54.526Z,18.61
2022-10-15T16:22:22.669Z,18.66
2022-10-15T16:24:50.809Z,18.61
2022-10-15T16:27:18.850Z,18.65
2022-10-15T16:29:46.900Z,18.64
2022-10-15T16:32:15.123Z,18.64
2022-10-15T16:34:43.119Z,18.60
2022-10-15T16:37:12.567Z,18.56
2022-10-15T16:39:40.691Z,18.49
2022-10-15T16:42:09.375Z,18.45
2022-10-15T16:44:37.477Z,18.50
2022-10-15T16:47:05.556Z,18.43
2022-10-15T16:49:33.602Z,18.38
2022-10-15T16:52:01.666Z,18.25
2022-10-15T16:54:31.048Z,18.08
2022-10-15T16:57:00.183Z,18.07
2022-10-15T16:59:28.481Z,17.95
2022-10-15T17:01:56.715Z,18.07
2022-10-15T17:04:24.732Z,18.06
2022-10-15T17:06:52.725Z,18.11
2022-10-15T17:09:21.077Z,18.06
2022-10-15T17:11:50.876Z,18.11
2022-10-15T17:14:19.334Z,18.08
2022-10-15T17:16:48.557Z,18.05
2022-10-15T17:19:18.698Z,18.06
2022-10-15T17:22:35.959Z,18.07
2022-10-15T17:25:04.212Z,18.04
2022-10-15T17:27:35.664Z,18.02
2022-10-15T17:30:03.746Z,18.02
2022-10-15T17:32:31.759Z,17.98
2022-10-15T17:35:03.845Z,17.97
2022-10-15T17:37:32.444Z,17.95
2022-10-15T17:40:00.722Z,17.93
2022-10-15T17:42:28.904Z,17.90
2022-10-15T17:44:58.319Z,17.88
2022-10-15T17:47:26.584Z,17.87
2022-10-15T17:49:54.979Z,17.83
2022-10-15T17:52:22.965Z,17.81
2022-10-15T17:54:51.625Z,17.77
2022-10-15T17:57:19.617Z,17.69
2022-10-15T17:59:50.428Z,17.63
2022-10-15T18:02:20.761Z,17.58
2022-10-15T18:04:49.275Z,17.52
2022-10-15T18:07:19.777Z,17.47
2022-10-15T18:09:47.764Z,17.43
2022-10-15T18:12:15.730Z,17.38
2022-10-15T18:14:43.751Z,17.36
2022-10-15T18:17:12.063Z,17.32
2022-10-15T18:19:41.522Z,17.30
2022-10-15T18:22:09.495Z,17.30
2022-10-15T18:24:37.560Z,17.28
2022-10-15T18:27:05.871Z,17.29
2022-10-15T18:29:34.767Z,17.26
2022-10-15T18:32:02.937Z,17.24
2022-10-15T18:34:33.287Z,17.23
2022-10-15T18:37:02.670Z,17.22
2022-10-15T18:39:30.674Z,17.20
2022-10-15T18:41:58.732Z,17.20
2022-10-15T18:44:28.649Z,17.18
2022-10-15T18:46:56.667Z,17.18
2022-10-15T18:49:24.695Z,17.17
2022-10-15T18:51:54.083Z,17.17
2022-10-15T18:54:24.017Z,17.16
2022-10-15T18:56:53.046Z,17.13
2022-10-15T18:59:21.867Z,17.12
2022-10-15T19:01:50.839Z,17.05
2022-10-15T19:04:19.829Z,17.02
2022-10-15T19:06:49.609Z,16.98
2022-10-15T19:09:19.503Z,16.92
2022-10-15T19:11:50.600Z,16.93
2022-10-15T19:14:18.862Z,16.93
2022-10-15T19:16:47.970Z,16.94
2022-10-15T19:19:17.550Z,16.93
2022-10-15T19:21:46.007Z,16.90
2022-10-15T19:24:15.411Z,16.90
2022-10-15T19:26:43.765Z,16.87
2022-10-15T19:29:13.197Z,16.84
2022-10-15T19:31:42.963Z,16.81
2022-10-15T19:34:11.390Z,16.77
2022-10-15T19:36:41.581Z,16.74
2022-10-15T19:39:12.713Z,16.71
2022-10-15T19:41:42.347Z,16.71
2022-10-15T19:44:13.382Z,16.67
2022-10-15T19:46:41.832Z,16.65
2022-10-15T19:49:12.290Z,16.63
2022-10-15T19:51:40.279Z,16.57
2022-10-15T19:54:08.434Z,16.50
2022-10-15T19:56:36.520Z,16.49
2022-10-15T19:59:06.022Z,16.34
2022-10-15T20:01:35.534Z,16.32
2022-10-15T20:04:06.464Z,16.36
2022-10-15T20:06:35.625Z,16.36
2022-10-15T20:09:03.970Z,16.37
2022-10-15T20:11:32.304Z,16.38
2022-10-15T20:14:00.471Z,16.37
2022-10-15T20:16:32.485Z,16.26
2022-10-15T20:19:03.488Z,16.25
2022-10-15T20:21:32.122Z,16.27
2022-10-15T20:24:03.844Z,16.29
2022-10-15T20:26:31.902Z,16.30
2022-10-15T20:29:00.047Z,16.30
2022-10-15T20:31:32.774Z,16.30
2022-10-15T20:34:03.199Z,16.29
2022-10-15T20:36:31.280Z,16.28
2022-10-15T20:39:00.658Z,16.28
2022-10-15T20:41:28.823Z,16.25
2022-10-15T20:43:57.260Z,16.16
2022-10-15T20:46:28.348Z,16.15
2022-10-15T20:48:57.388Z,16.16
2022-10-15T20:51:28.604Z,16.15
2022-10-15T20:53:57.136Z,16.14
2022-10-15T20:56:25.311Z,16.13
2022-10-15T20:58:53.426Z,16.12
2022-10-15T21:01:21.609Z,16.12
2022-10-15T21:03:49.662Z,16.12
2022-10-15T21:06:17.728Z,16.12
2022-10-15T21:08:47.119Z,16.13
2022-10-15T21:11:15.334Z,16.12
2022-10-15T21:13:43.422Z,16.12
2022-10-15T21:16:11.780Z,16.13
2022-10-15T21:18:39.845Z,16.12
2022-10-15T21:21:09.636Z,16.12
2022-10-15T21:23:38.658Z,16.12
2022-10-15T21:26:09.281Z,16.10
2022-10-15T21:28:37.695Z,16.09
2022-10-15T21:31:06.436Z,16.08
2022-10-15T21:33:36.010Z,16.05
2022-10-15T21:36:11.764Z,15.86
2022-10-15T21:38:39.749Z,15.88
2022-10-15T21:41:09.412Z,15.92
2022-10-15T21:43:37.459Z,15.94
2022-10-15T21:46:07.527Z,15.95
2022-10-15T21:48:36.695Z,15.95
2022-10-15T21:51:04.852Z,15.93
2022-10-15T21:53:33.990Z,15.92
2022-10-15T21:56:02.365Z,15.91
2022-10-15T21:58:31.804Z,15.89
2022-10-15T22:01:08.444Z,15.89
2022-10-15T22:03:36.562Z,15.87
2022-10-15T22:06:05.171Z,15.86
2022-10-15T22:08:33.552Z,15.84
2022-10-15T22:11:12.007Z,15.82
2022-10-15T22:13:42.801Z,15.80
2022-10-15T22:16:11.288Z,15.78
2022-10-15T22:18:40.747Z,15.77
2022-10-15T22:21:15.036Z,15.77
2022-10-15T22:23:44.212Z,15.74
2022-10-15T22:26:12.540Z,15.74
2022-10-15T22:28:42.288Z,15.73
2022-10-15T22:31:12.664Z,15.72
2022-10-15T22:33:41.699Z,15.69
2022-10-15T22:36:14.999Z,15.69
2022-10-15T22:38:45.055Z,15.66
2022-10-15T22:41:13.582Z,15.65
2022-10-15T22:43:43.214Z,15.63
2022-10-15T22:46:11.761Z,15.60
2022-10-15T22:48:41.221Z,15.58
2022-10-15T22:51:11.057Z,15.57
2022-10-15T22:53:39.409Z,15.56
2022-10-15T22:56:09.060Z,15.42
2022-10-15T22:58:37.670Z,15.46
2022-10-15T23:01:12.089Z,15.47
2022-10-15T23:03:40.606Z,15.49
2022-10-15T23:06:08.763Z,15.50
2022-10-15T23:08:37.243Z,15.48
2022-10-15T23:11:09.995Z,15.49
2022-10-15T23:13:38.722Z,15.51
2022-10-15T23:16:14.748Z,15.50
2022-10-15T23:18:44.600Z,15.49
2022-10-15T23:21:14.917Z,15.49
2022-10-15T23:24:08.000Z,15.48
2022-10-15T23:26:36.639Z,15.47
2022-10-15T23:29:06.425Z,15.46
2022-10-15T23:31:36.898Z,15.46
2022-10-15T23:34:06.623Z,15.44
2022-10-15T23:36:35.251Z,15.43
2022-10-15T23:39:05.505Z,15.40
2022-10-15T23:41:34.011Z,15.38
2022-10-15T23:44:02.019Z,15.37
2022-10-15T23:46:30.057Z,15.34
2022-10-15T23:48:59.409Z,15.31
2022-10-15T23:51:28.970Z,15.28
2022-10-15T23:53:59.544Z,15.27
2022-10-15T23:56:27.960Z,15.25
2022-10-15T23:58:58.296Z,15.24
